sensor_id;sensor_type;location;lat;lon;timestamp;temperature;humidity
298;DHT22;133;49.626;9.680;2023-04-06T00:01:27;2.20;77.70
298;DHT22;133;49.626;9.680;2023-04-06T00:03:53;2.20;78.10
298;DHT22;133;49.626;9.680;2023-04-06T00:06:18;2.10;78.00
298;DHT22;133;49.626;9.680;2023-04-06T00:08:44;2.10;78.30
298;DHT22;133;49.626;9.680;2023-04-06T00:11:10;2.00;78.10
298;DHT22;133;49.626;9.680;2023-04-06T00:13:35;1.80;77.70
298;DHT22;133;49.626;9.680;2023-04-06T00:16:01;1.70;78.10
298;DHT22;133;49.626;9.680;2023-04-06T00:18:27;1.60;78.90
298;DHT22;133;49.626;9.680;2023-04-06T00:20:53;1.60;79.90
298;DHT22;133;49.626;9.680;2023-04-06T00:23:18;1.50;80.30
298;DHT22;133;49.626;9.680;2023-04-06T00:25:44;1.60;80.40
298;DHT22;133;49.626;9.680;2023-04-06T00:28:10;1.70;80.50
298;DHT22;133;49.626;9.680;2023-04-06T00:30:35;1.70;80.50
298;DHT22;133;49.626;9.680;2023-04-06T00:33:01;1.70;80.50
298;DHT22;133;49.626;9.680;2023-04-06T00:35:27;1.80;80.60
298;DHT22;133;49.626;9.680;2023-04-06T00:37:52;1.80;80.10
298;DHT22;133;49.626;9.680;2023-04-06T00:40:18;1.80;79.30
298;DHT22;133;49.626;9.680;2023-04-06T00:42:44;1.80;79.10
298;DHT22;133;49.626;9.680;2023-04-06T00:45:10;1.70;79.30
298;DHT22;133;49.626;9.680;2023-04-06T00:47:36;1.60;79.30
298;DHT22;133;49.626;9.680;2023-04-06T00:50:02;1.60;79.60
298;DHT22;133;49.626;9.680;2023-04-06T00:52:27;1.60;79.80
298;DHT22;133;49.626;9.680;2023-04-06T00:54:53;1.60;79.50
298;DHT22;133;49.626;9.680;2023-04-06T00:57:19;1.50;79.80
298;DHT22;133;49.626;9.680;2023-04-06T00:59:45;1.50;80.20
298;DHT22;133;49.626;9.680;2023-04-06T01:02:11;1.50;80.30
298;DHT22;133;49.626;9.680;2023-04-06T01:04:37;1.40;80.50
298;DHT22;133;49.626;9.680;2023-04-06T01:07:03;1.30;80.80
298;DHT22;133;49.626;9.680;2023-04-06T01:09:29;1.30;80.90
298;DHT22;133;49.626;9.680;2023-04-06T01:11:58;1.30;80.90
298;DHT22;133;49.626;9.680;2023-04-06T01:14:24;1.30;81.30
298;DHT22;133;49.626;9.680;2023-04-06T01:16:51;1.30;81.90
298;DHT22;133;49.626;9.680;2023-04-06T01:19:16;1.20;81.90
298;DHT22;133;49.626;9.680;2023-04-06T01:21:42;1.30;82.00
298;DHT22;133;49.626;9.680;2023-04-06T01:24:08;1.30;81.80
298;DHT22;133;49.626;9.680;2023-04-06T01:26:35;1.30;81.80
298;DHT22;133;49.626;9.680;2023-04-06T01:29:02;1.30;82.50
298;DHT22;133;49.626;9.680;2023-04-06T01:31:28;1.30;82.30
298;DHT22;133;49.626;9.680;2023-04-06T01:33:54;1.30;81.90
298;DHT22;133;49.626;9.680;2023-04-06T01:36:20;1.20;81.00
298;DHT22;133;49.626;9.680;2023-04-06T01:38:46;1.20;82.10
298;DHT22;133;49.626;9.680;2023-04-06T01:41:12;1.20;82.80
298;DHT22;133;49.626;9.680;2023-04-06T01:43:37;1.20;82.30
298;DHT22;133;49.626;9.680;2023-04-06T01:46:04;1.20;82.10
298;DHT22;133;49.626;9.680;2023-04-06T01:48:29;1.10;82.00
298;DHT22;133;49.626;9.680;2023-04-06T01:50:55;1.10;82.20
298;DHT22;133;49.626;9.680;2023-04-06T01:53:21;1.10;81.80
298;DHT22;133;49.626;9.680;2023-04-06T01:55:47;1.10;81.90
298;DHT22;133;49.626;9.680;2023-04-06T01:58:13;1.10;81.60
298;DHT22;133;49.626;9.680;2023-04-06T02:00:39;1.00;82.60
298;DHT22;133;49.626;9.680;2023-04-06T02:03:05;0.90;82.80
298;DHT22;133;49.626;9.680;2023-04-06T02:05:32;0.90;82.70
298;DHT22;133;49.626;9.680;2023-04-06T02:08:07;0.90;82.50
298;DHT22;133;49.626;9.680;2023-04-06T02:10:33;0.80;83.10
298;DHT22;133;49.626;9.680;2023-04-06T02:13:00;0.90;82.80
298;DHT22;133;49.626;9.680;2023-04-06T02:15:26;0.80;83.10
298;DHT22;133;49.626;9.680;2023-04-06T02:17:52;0.70;83.20
298;DHT22;133;49.626;9.680;2023-04-06T02:20:18;0.70;83.30
298;DHT22;133;49.626;9.680;2023-04-06T02:22:44;0.70;84.40
298;DHT22;133;49.626;9.680;2023-04-06T02:25:10;0.70;84.10
298;DHT22;133;49.626;9.680;2023-04-06T02:27:36;0.70;84.40
298;DHT22;133;49.626;9.680;2023-04-06T02:30:02;0.70;84.20
298;DHT22;133;49.626;9.680;2023-04-06T02:32:28;0.70;84.00
298;DHT22;133;49.626;9.680;2023-04-06T02:34:53;0.70;84.70
298;DHT22;133;49.626;9.680;2023-04-06T02:37:19;0.70;84.10
298;DHT22;133;49.626;9.680;2023-04-06T02:39:45;0.60;83.20
298;DHT22;133;49.626;9.680;2023-04-06T02:42:11;0.70;84.00
298;DHT22;133;49.626;9.680;2023-04-06T02:44:36;0.70;84.30
298;DHT22;133;49.626;9.680;2023-04-06T02:47:02;0.60;84.90
298;DHT22;133;49.626;9.680;2023-04-06T02:49:28;0.60;84.80
298;DHT22;133;49.626;9.680;2023-04-06T02:51:53;0.70;83.80
298;DHT22;133;49.626;9.680;2023-04-06T02:54:19;0.60;83.50
298;DHT22;133;49.626;9.680;2023-04-06T02:56:44;0.60;84.30
298;DHT22;133;49.626;9.680;2023-04-06T02:59:10;0.60;85.00
298;DHT22;133;49.626;9.680;2023-04-06T03:01:36;0.50;84.80
298;DHT22;133;49.626;9.680;2023-04-06T03:04:02;0.40;84.40
298;DHT22;133;49.626;9.680;2023-04-06T03:06:28;0.40;84.50
298;DHT22;133;49.626;9.680;2023-04-06T03:08:53;0.40;84.50
298;DHT22;133;49.626;9.680;2023-04-06T03:11:19;0.40;84.40
298;DHT22;133;49.626;9.680;2023-04-06T03:13:46;0.30;84.60
298;DHT22;133;49.626;9.680;2023-04-06T03:16:11;0.30;84.60
298;DHT22;133;49.626;9.680;2023-04-06T03:18:37;0.30;84.60
298;DHT22;133;49.626;9.680;2023-04-06T03:21:03;0.30;84.70
298;DHT22;133;49.626;9.680;2023-04-06T03:23:28;0.30;84.70
298;DHT22;133;49.626;9.680;2023-04-06T03:25:54;0.20;84.60
298;DHT22;133;49.626;9.680;2023-04-06T03:28:20;0.10;84.80
298;DHT22;133;49.626;9.680;2023-04-06T03:30:46;0.20;85.50
298;DHT22;133;49.626;9.680;2023-04-06T03:33:11;0.20;84.90
298;DHT22;133;49.626;9.680;2023-04-06T03:35:37;0.20;85.40
298;DHT22;133;49.626;9.680;2023-04-06T03:38:04;0.30;85.40
298;DHT22;133;49.626;9.680;2023-04-06T03:40:30;0.30;85.30
298;DHT22;133;49.626;9.680;2023-04-06T03:42:56;0.20;85.10
298;DHT22;133;49.626;9.680;2023-04-06T03:45:22;0.10;85.40
298;DHT22;133;49.626;9.680;2023-04-06T03:47:48;0.20;85.90
298;DHT22;133;49.626;9.680;2023-04-06T03:50:13;0.10;86.30
298;DHT22;133;49.626;9.680;2023-04-06T03:52:39;0.20;85.60
298;DHT22;133;49.626;9.680;2023-04-06T03:55:05;0.10;85.70
298;DHT22;133;49.626;9.680;2023-04-06T03:57:31;0.10;85.40
298;DHT22;133;49.626;9.680;2023-04-06T03:59:57;0.00;85.60
298;DHT22;133;49.626;9.680;2023-04-06T04:02:22;-0.10;85.80
298;DHT22;133;49.626;9.680;2023-04-06T04:04:48;-0.10;85.70
298;DHT22;133;49.626;9.680;2023-04-06T04:07:13;-0.20;86.00
298;DHT22;133;49.626;9.680;2023-04-06T04:09:39;-0.20;86.10
298;DHT22;133;49.626;9.680;2023-04-06T04:12:05;-0.20;86.20
298;DHT22;133;49.626;9.680;2023-04-06T04:14:31;-0.30;86.60
298;DHT22;133;49.626;9.680;2023-04-06T04:16:57;-0.30;87.00
298;DHT22;133;49.626;9.680;2023-04-06T04:19:22;-0.20;87.40
298;DHT22;133;49.626;9.680;2023-04-06T04:21:48;-0.20;86.90
298;DHT22;133;49.626;9.680;2023-04-06T04:24:13;-0.30;87.30
298;DHT22;133;49.626;9.680;2023-04-06T04:26:39;-0.30;87.30
298;DHT22;133;49.626;9.680;2023-04-06T04:29:05;-0.30;87.00
298;DHT22;133;49.626;9.680;2023-04-06T04:31:31;-0.20;86.80
298;DHT22;133;49.626;9.680;2023-04-06T04:33:59;-0.20;87.30
298;DHT22;133;49.626;9.680;2023-04-06T04:36:25;-0.10;87.50
298;DHT22;133;49.626;9.680;2023-04-06T04:38:51;-0.10;87.00
298;DHT22;133;49.626;9.680;2023-04-06T04:41:17;-0.10;86.20
298;DHT22;133;49.626;9.680;2023-04-06T04:43:43;-0.10;85.90
298;DHT22;133;49.626;9.680;2023-04-06T04:46:08;-0.10;85.90
298;DHT22;133;49.626;9.680;2023-04-06T04:48:34;-0.20;85.80
298;DHT22;133;49.626;9.680;2023-04-06T04:51:00;-0.20;86.10
298;DHT22;133;49.626;9.680;2023-04-06T04:53:26;-0.30;86.40
298;DHT22;133;49.626;9.680;2023-04-06T04:55:52;-0.30;87.10
298;DHT22;133;49.626;9.680;2023-04-06T04:58:17;-0.40;87.20
298;DHT22;133;49.626;9.680;2023-04-06T05:00:45;-0.30;86.80
298;DHT22;133;49.626;9.680;2023-04-06T05:03:22;-0.30;87.00
298;DHT22;133;49.626;9.680;2023-04-06T05:05:48;-0.30;87.00
298;DHT22;133;49.626;9.680;2023-04-06T05:08:14;-0.40;87.00
298;DHT22;133;49.626;9.680;2023-04-06T05:10:40;-0.40;87.40
298;DHT22;133;49.626;9.680;2023-04-06T05:13:05;-0.50;88.10
298;DHT22;133;49.626;9.680;2023-04-06T05:15:31;-0.40;88.10
298;DHT22;133;49.626;9.680;2023-04-06T05:17:57;-0.30;87.40
298;DHT22;133;49.626;9.680;2023-04-06T05:20:22;-0.40;87.20
298;DHT22;133;49.626;9.680;2023-04-06T05:22:48;-0.30;87.50
298;DHT22;133;49.626;9.680;2023-04-06T05:25:14;-0.30;87.80
298;DHT22;133;49.626;9.680;2023-04-06T05:27:40;-0.20;87.30
298;DHT22;133;49.626;9.680;2023-04-06T05:30:07;-0.20;87.30
298;DHT22;133;49.626;9.680;2023-04-06T05:32:33;-0.10;87.40
298;DHT22;133;49.626;9.680;2023-04-06T05:34:59;-0.10;87.60
298;DHT22;133;49.626;9.680;2023-04-06T05:37:25;0.00;87.40
298;DHT22;133;49.626;9.680;2023-04-06T05:39:51;-0.10;86.70
298;DHT22;133;49.626;9.680;2023-04-06T05:42:16;0.10;86.80
298;DHT22;133;49.626;9.680;2023-04-06T05:44:42;0.20;87.10
298;DHT22;133;49.626;9.680;2023-04-06T05:47:08;0.30;87.00
298;DHT22;133;49.626;9.680;2023-04-06T05:49:34;0.30;86.30
298;DHT22;133;49.626;9.680;2023-04-06T05:52:00;0.30;86.20
298;DHT22;133;49.626;9.680;2023-04-06T05:54:26;0.30;86.30
298;DHT22;133;49.626;9.680;2023-04-06T05:56:52;0.40;86.10
298;DHT22;133;49.626;9.680;2023-04-06T05:59:17;0.40;86.20
298;DHT22;133;49.626;9.680;2023-04-06T06:01:43;0.50;86.20
298;DHT22;133;49.626;9.680;2023-04-06T06:04:09;0.50;86.00
298;DHT22;133;49.626;9.680;2023-04-06T06:06:34;0.60;85.50
298;DHT22;133;49.626;9.680;2023-04-06T06:09:01;0.60;85.60
298;DHT22;133;49.626;9.680;2023-04-06T06:11:29;0.60;85.80
298;DHT22;133;49.626;9.680;2023-04-06T06:13:55;0.50;86.30
298;DHT22;133;49.626;9.680;2023-04-06T06:16:21;0.50;86.30
298;DHT22;133;49.626;9.680;2023-04-06T06:18:46;0.40;86.00
298;DHT22;133;49.626;9.680;2023-04-06T06:21:12;0.50;86.30
298;DHT22;133;49.626;9.680;2023-04-06T06:23:38;0.60;86.50
298;DHT22;133;49.626;9.680;2023-04-06T06:26:04;0.70;85.80
298;DHT22;133;49.626;9.680;2023-04-06T06:28:30;0.80;85.80
298;DHT22;133;49.626;9.680;2023-04-06T06:30:56;0.80;85.40
298;DHT22;133;49.626;9.680;2023-04-06T06:33:22;0.90;85.20
298;DHT22;133;49.626;9.680;2023-04-06T06:35:48;0.90;84.90
298;DHT22;133;49.626;9.680;2023-04-06T06:38:14;0.90;84.90
298;DHT22;133;49.626;9.680;2023-04-06T06:40:40;1.10;84.90
298;DHT22;133;49.626;9.680;2023-04-06T06:43:06;1.20;84.70
298;DHT22;133;49.626;9.680;2023-04-06T06:45:31;1.20;84.40
298;DHT22;133;49.626;9.680;2023-04-06T06:47:57;1.30;84.70
298;DHT22;133;49.626;9.680;2023-04-06T06:50:23;1.30;84.60
298;DHT22;133;49.626;9.680;2023-04-06T06:52:48;1.30;84.40
298;DHT22;133;49.626;9.680;2023-04-06T06:55:14;1.40;84.20
298;DHT22;133;49.626;9.680;2023-04-06T06:57:40;1.40;84.10
298;DHT22;133;49.626;9.680;2023-04-06T07:00:08;1.50;83.90
298;DHT22;133;49.626;9.680;2023-04-06T07:02:34;1.60;83.60
298;DHT22;133;49.626;9.680;2023-04-06T07:05:01;1.50;83.70
298;DHT22;133;49.626;9.680;2023-04-06T07:07:27;1.50;83.50
298;DHT22;133;49.626;9.680;2023-04-06T07:09:52;1.50;83.20
298;DHT22;133;49.626;9.680;2023-04-06T07:12:18;1.40;83.40
298;DHT22;133;49.626;9.680;2023-04-06T07:14:44;1.40;84.10
298;DHT22;133;49.626;9.680;2023-04-06T07:17:09;1.50;84.40
298;DHT22;133;49.626;9.680;2023-04-06T07:19:35;1.70;83.60
298;DHT22;133;49.626;9.680;2023-04-06T07:22:01;1.80;83.70
298;DHT22;133;49.626;9.680;2023-04-06T07:24:28;1.80;83.50
298;DHT22;133;49.626;9.680;2023-04-06T07:26:54;2.00;83.20
298;DHT22;133;49.626;9.680;2023-04-06T07:29:21;2.10;83.00
298;DHT22;133;49.626;9.680;2023-04-06T07:31:48;2.20;82.80
298;DHT22;133;49.626;9.680;2023-04-06T07:34:15;2.30;82.80
298;DHT22;133;49.626;9.680;2023-04-06T07:36:40;2.50;82.50
298;DHT22;133;49.626;9.680;2023-04-06T07:39:07;2.70;81.70
298;DHT22;133;49.626;9.680;2023-04-06T07:41:32;2.80;80.60
298;DHT22;133;49.626;9.680;2023-04-06T07:43:58;3.00;80.30
298;DHT22;133;49.626;9.680;2023-04-06T07:46:24;3.10;80.80
298;DHT22;133;49.626;9.680;2023-04-06T07:48:50;3.30;80.70
298;DHT22;133;49.626;9.680;2023-04-06T07:51:16;3.50;80.30
298;DHT22;133;49.626;9.680;2023-04-06T07:53:44;3.60;79.50
298;DHT22;133;49.626;9.680;2023-04-06T07:56:10;3.70;78.70
298;DHT22;133;49.626;9.680;2023-04-06T07:58:35;3.80;78.50
298;DHT22;133;49.626;9.680;2023-04-06T08:01:02;3.90;78.00
298;DHT22;133;49.626;9.680;2023-04-06T08:03:28;4.00;78.10
298;DHT22;133;49.626;9.680;2023-04-06T08:05:53;4.10;77.60
298;DHT22;133;49.626;9.680;2023-04-06T08:08:19;4.20;77.50
298;DHT22;133;49.626;9.680;2023-04-06T08:10:49;4.40;77.80
298;DHT22;133;49.626;9.680;2023-04-06T08:13:15;4.50;77.90
298;DHT22;133;49.626;9.680;2023-04-06T08:15:41;4.60;77.60
298;DHT22;133;49.626;9.680;2023-04-06T08:18:08;4.70;77.20
298;DHT22;133;49.626;9.680;2023-04-06T08:20:34;4.90;76.90
298;DHT22;133;49.626;9.680;2023-04-06T08:23:00;5.00;76.60
298;DHT22;133;49.626;9.680;2023-04-06T08:25:26;5.10;76.80
298;DHT22;133;49.626;9.680;2023-04-06T08:27:52;5.20;76.20
298;DHT22;133;49.626;9.680;2023-04-06T08:30:18;5.20;76.50
298;DHT22;133;49.626;9.680;2023-04-06T08:32:45;5.30;76.10
298;DHT22;133;49.626;9.680;2023-04-06T08:35:11;5.30;76.50
298;DHT22;133;49.626;9.680;2023-04-06T08:37:37;5.50;76.50
298;DHT22;133;49.626;9.680;2023-04-06T08:40:04;5.60;75.70
298;DHT22;133;49.626;9.680;2023-04-06T08:42:32;5.80;75.80
298;DHT22;133;49.626;9.680;2023-04-06T08:44:59;6.00;75.60
298;DHT22;133;49.626;9.680;2023-04-06T08:47:25;6.20;75.50
298;DHT22;133;49.626;9.680;2023-04-06T08:49:52;6.40;75.20
298;DHT22;133;49.626;9.680;2023-04-06T08:52:18;6.60;73.90
298;DHT22;133;49.626;9.680;2023-04-06T08:54:45;6.80;72.90
298;DHT22;133;49.626;9.680;2023-04-06T08:57:11;7.00;69.70
298;DHT22;133;49.626;9.680;2023-04-06T08:59:38;7.10;70.00
298;DHT22;133;49.626;9.680;2023-04-06T09:02:04;7.30;69.40
298;DHT22;133;49.626;9.680;2023-04-06T09:04:33;7.50;67.70
298;DHT22;133;49.626;9.680;2023-04-06T09:07:00;7.60;66.90
298;DHT22;133;49.626;9.680;2023-04-06T09:09:26;7.80;67.00
298;DHT22;133;49.626;9.680;2023-04-06T09:11:52;7.90;66.90
298;DHT22;133;49.626;9.680;2023-04-06T09:14:34;8.00;65.50
298;DHT22;133;49.626;9.680;2023-04-06T09:17:00;8.20;64.90
298;DHT22;133;49.626;9.680;2023-04-06T09:19:26;8.30;63.40
298;DHT22;133;49.626;9.680;2023-04-06T09:22:02;8.40;63.90
298;DHT22;133;49.626;9.680;2023-04-06T09:24:38;8.60;63.60
298;DHT22;133;49.626;9.680;2023-04-06T09:27:05;8.70;62.50
298;DHT22;133;49.626;9.680;2023-04-06T09:29:31;8.90;61.00
298;DHT22;133;49.626;9.680;2023-04-06T09:32:04;8.90;60.90
298;DHT22;133;49.626;9.680;2023-04-06T09:34:30;9.00;59.90
298;DHT22;133;49.626;9.680;2023-04-06T09:36:56;9.10;59.90
298;DHT22;133;49.626;9.680;2023-04-06T09:39:22;9.10;59.80
298;DHT22;133;49.626;9.680;2023-04-06T09:41:52;9.30;59.60
298;DHT22;133;49.626;9.680;2023-04-06T09:44:18;9.40;60.20
298;DHT22;133;49.626;9.680;2023-04-06T09:46:45;9.50;60.40
298;DHT22;133;49.626;9.680;2023-04-06T09:49:12;9.70;60.30
298;DHT22;133;49.626;9.680;2023-04-06T09:51:46;9.80;57.90
298;DHT22;133;49.626;9.680;2023-04-06T09:54:18;10.00;59.00
298;DHT22;133;49.626;9.680;2023-04-06T09:56:50;10.10;59.30
298;DHT22;133;49.626;9.680;2023-04-06T09:59:42;10.20;57.80
298;DHT22;133;49.626;9.680;2023-04-06T10:02:18;10.30;57.30
298;DHT22;133;49.626;9.680;2023-04-06T10:05:00;10.40;56.20
298;DHT22;133;49.626;9.680;2023-04-06T10:07:28;10.50;56.40
298;DHT22;133;49.626;9.680;2023-04-06T10:09:55;10.60;56.00
298;DHT22;133;49.626;9.680;2023-04-06T10:12:21;10.60;55.00
298;DHT22;133;49.626;9.680;2023-04-06T10:14:47;10.70;54.60
298;DHT22;133;49.626;9.680;2023-04-06T10:17:14;10.90;55.70
298;DHT22;133;49.626;9.680;2023-04-06T10:19:49;11.10;56.60
298;DHT22;133;49.626;9.680;2023-04-06T10:22:32;11.30;55.60
298;DHT22;133;49.626;9.680;2023-04-06T10:25:02;11.50;55.10
298;DHT22;133;49.626;9.680;2023-04-06T10:27:29;11.70;55.20
298;DHT22;133;49.626;9.680;2023-04-06T10:30:04;11.90;53.90
298;DHT22;133;49.626;9.680;2023-04-06T10:32:37;12.10;54.00
298;DHT22;133;49.626;9.680;2023-04-06T10:35:11;12.10;52.10
298;DHT22;133;49.626;9.680;2023-04-06T10:37:51;12.20;51.50
298;DHT22;133;49.626;9.680;2023-04-06T10:40:25;12.40;51.80
298;DHT22;133;49.626;9.680;2023-04-06T10:42:55;12.60;51.70
298;DHT22;133;49.626;9.680;2023-04-06T10:45:24;12.80;51.20
298;DHT22;133;49.626;9.680;2023-04-06T10:47:53;12.90;51.30
298;DHT22;133;49.626;9.680;2023-04-06T10:50:18;13.20;50.90
298;DHT22;133;49.626;9.680;2023-04-06T10:52:45;13.40;50.50
298;DHT22;133;49.626;9.680;2023-04-06T10:55:15;14.30;49.40
298;DHT22;133;49.626;9.680;2023-04-06T10:57:41;15.40;48.20
298;DHT22;133;49.626;9.680;2023-04-06T11:00:07;17.00;45.60
298;DHT22;133;49.626;9.680;2023-04-06T11:02:36;18.30;42.70
298;DHT22;133;49.626;9.680;2023-04-06T11:05:03;19.60;40.40
298;DHT22;133;49.626;9.680;2023-04-06T11:07:29;19.40;38.10
298;DHT22;133;49.626;9.680;2023-04-06T11:09:56;18.30;38.70
298;DHT22;133;49.626;9.680;2023-04-06T11:12:26;18.10;39.90
298;DHT22;133;49.626;9.680;2023-04-06T11:14:56;18.90;39.20
298;DHT22;133;49.626;9.680;2023-04-06T11:17:28;19.10;38.70
298;DHT22;133;49.626;9.680;2023-04-06T11:19:55;19.20;38.10
298;DHT22;133;49.626;9.680;2023-04-06T11:22:21;18.80;38.80
298;DHT22;133;49.626;9.680;2023-04-06T11:24:46;19.40;37.90
298;DHT22;133;49.626;9.680;2023-04-06T11:27:13;19.30;37.40
298;DHT22;133;49.626;9.680;2023-04-06T11:29:41;18.60;37.80
298;DHT22;133;49.626;9.680;2023-04-06T11:32:07;18.30;38.40
298;DHT22;133;49.626;9.680;2023-04-06T11:34:39;17.70;38.90
298;DHT22;133;49.626;9.680;2023-04-06T11:37:11;17.50;39.50
298;DHT22;133;49.626;9.680;2023-04-06T11:39:42;18.30;39.70
298;DHT22;133;49.626;9.680;2023-04-06T11:42:08;18.90;38.70
298;DHT22;133;49.626;9.680;2023-04-06T11:44:39;20.30;37.60
298;DHT22;133;49.626;9.680;2023-04-06T11:47:10;21.00;36.00
298;DHT22;133;49.626;9.680;2023-04-06T11:49:40;21.00;34.30
298;DHT22;133;49.626;9.680;2023-04-06T11:54:47;20.40;35.00
298;DHT22;133;49.626;9.680;2023-04-06T11:57:14;20.00;35.50
298;DHT22;133;49.626;9.680;2023-04-06T11:59:40;20.20;35.70
298;DHT22;133;49.626;9.680;2023-04-06T12:02:07;20.50;35.20
298;DHT22;133;49.626;9.680;2023-04-06T12:04:33;19.80;36.00
298;DHT22;133;49.626;9.680;2023-04-06T12:06:58;19.30;36.20
298;DHT22;133;49.626;9.680;2023-04-06T12:09:24;19.40;36.70
298;DHT22;133;49.626;9.680;2023-04-06T12:11:50;19.30;37.20
298;DHT22;133;49.626;9.680;2023-04-06T12:14:16;19.60;35.40
298;DHT22;133;49.626;9.680;2023-04-06T12:16:43;19.80;36.10
298;DHT22;133;49.626;9.680;2023-04-06T12:19:09;20.80;36.10
298;DHT22;133;49.626;9.680;2023-04-06T12:21:35;21.60;35.00
298;DHT22;133;49.626;9.680;2023-04-06T12:24:05;22.20;34.00
298;DHT22;133;49.626;9.680;2023-04-06T12:26:31;22.60;33.70
298;DHT22;133;49.626;9.680;2023-04-06T12:28:58;22.50;33.30
298;DHT22;133;49.626;9.680;2023-04-06T12:31:30;22.80;33.80
298;DHT22;133;49.626;9.680;2023-04-06T12:33:56;21.40;32.60
298;DHT22;133;49.626;9.680;2023-04-06T12:36:21;20.80;36.10
298;DHT22;133;49.626;9.680;2023-04-06T12:38:49;21.30;35.00
298;DHT22;133;49.626;9.680;2023-04-06T12:41:18;21.60;33.70
298;DHT22;133;49.626;9.680;2023-04-06T12:43:45;21.40;34.00
298;DHT22;133;49.626;9.680;2023-04-06T12:46:12;21.00;35.20
298;DHT22;133;49.626;9.680;2023-04-06T12:48:37;20.10;35.80
298;DHT22;133;49.626;9.680;2023-04-06T12:51:06;20.10;36.20
298;DHT22;133;49.626;9.680;2023-04-06T12:53:33;20.70;35.80
298;DHT22;133;49.626;9.680;2023-04-06T12:56:00;21.20;35.40
298;DHT22;133;49.626;9.680;2023-04-06T12:58:26;21.70;35.00
298;DHT22;133;49.626;9.680;2023-04-06T13:00:53;22.10;33.20
298;DHT22;133;49.626;9.680;2023-04-06T13:03:22;21.90;33.90
298;DHT22;133;49.626;9.680;2023-04-06T13:05:50;21.60;34.30
298;DHT22;133;49.626;9.680;2023-04-06T13:08:18;22.30;35.50
298;DHT22;133;49.626;9.680;2023-04-06T13:10:55;23.00;34.10
298;DHT22;133;49.626;9.680;2023-04-06T13:13:25;23.00;32.90
298;DHT22;133;49.626;9.680;2023-04-06T13:15:55;22.50;32.90
298;DHT22;133;49.626;9.680;2023-04-06T13:18:21;22.30;32.00
298;DHT22;133;49.626;9.680;2023-04-06T13:20:48;21.90;33.80
298;DHT22;133;49.626;9.680;2023-04-06T13:23:14;21.70;34.30
298;DHT22;133;49.626;9.680;2023-04-06T13:25:40;21.40;33.80
298;DHT22;133;49.626;9.680;2023-04-06T13:28:06;21.00;34.70
298;DHT22;133;49.626;9.680;2023-04-06T13:30:32;21.30;36.70
298;DHT22;133;49.626;9.680;2023-04-06T13:33:00;22.00;35.70
298;DHT22;133;49.626;9.680;2023-04-06T13:35:27;22.40;34.10
298;DHT22;133;49.626;9.680;2023-04-06T13:37:52;23.00;35.40
298;DHT22;133;49.626;9.680;2023-04-06T13:40:19;23.30;32.50
298;DHT22;133;49.626;9.680;2023-04-06T13:42:44;22.20;32.40
298;DHT22;133;49.626;9.680;2023-04-06T13:45:11;21.40;33.10
298;DHT22;133;49.626;9.680;2023-04-06T13:47:39;20.50;34.40
298;DHT22;133;49.626;9.680;2023-04-06T13:50:05;19.70;34.90
298;DHT22;133;49.626;9.680;2023-04-06T13:52:31;19.40;35.80
298;DHT22;133;49.626;9.680;2023-04-06T13:54:58;19.10;36.30
298;DHT22;133;49.626;9.680;2023-04-06T13:57:25;19.10;35.70
298;DHT22;133;49.626;9.680;2023-04-06T13:59:51;19.30;36.10
298;DHT22;133;49.626;9.680;2023-04-06T14:02:17;19.40;35.30
298;DHT22;133;49.626;9.680;2023-04-06T14:04:43;19.60;35.50
298;DHT22;133;49.626;9.680;2023-04-06T14:07:09;19.50;35.20
298;DHT22;133;49.626;9.680;2023-04-06T14:09:34;18.60;34.90
298;DHT22;133;49.626;9.680;2023-04-06T14:12:01;18.60;36.20
298;DHT22;133;49.626;9.680;2023-04-06T14:14:27;18.20;36.30
298;DHT22;133;49.626;9.680;2023-04-06T14:16:53;18.20;36.20
298;DHT22;133;49.626;9.680;2023-04-06T14:19:19;18.40;36.80
298;DHT22;133;49.626;9.680;2023-04-06T14:21:50;18.30;36.10
298;DHT22;133;49.626;9.680;2023-04-06T14:24:17;18.20;37.10
298;DHT22;133;49.626;9.680;2023-04-06T14:26:43;18.30;36.20
298;DHT22;133;49.626;9.680;2023-04-06T14:29:09;18.30;37.00
298;DHT22;133;49.626;9.680;2023-04-06T14:31:36;18.60;37.80
298;DHT22;133;49.626;9.680;2023-04-06T14:34:02;18.90;37.10
298;DHT22;133;49.626;9.680;2023-04-06T14:36:32;19.10;36.70
298;DHT22;133;49.626;9.680;2023-04-06T14:39:05;18.10;36.60
298;DHT22;133;49.626;9.680;2023-04-06T14:41:32;17.90;37.10
298;DHT22;133;49.626;9.680;2023-04-06T14:43:58;17.50;37.00
298;DHT22;133;49.626;9.680;2023-04-06T14:46:24;17.20;36.60
298;DHT22;133;49.626;9.680;2023-04-06T14:48:50;17.20;37.80
298;DHT22;133;49.626;9.680;2023-04-06T14:51:17;17.50;38.20
298;DHT22;133;49.626;9.680;2023-04-06T14:53:43;17.70;37.50
298;DHT22;133;49.626;9.680;2023-04-06T14:56:10;17.40;37.00
298;DHT22;133;49.626;9.680;2023-04-06T14:58:36;17.30;37.80
298;DHT22;133;49.626;9.680;2023-04-06T15:01:01;17.10;36.90
298;DHT22;133;49.626;9.680;2023-04-06T15:03:28;16.90;37.40
298;DHT22;133;49.626;9.680;2023-04-06T15:05:56;16.80;37.30
298;DHT22;133;49.626;9.680;2023-04-06T15:08:22;16.80;37.80
298;DHT22;133;49.626;9.680;2023-04-06T15:10:50;16.50;38.00
298;DHT22;133;49.626;9.680;2023-04-06T15:13:16;16.20;38.20
298;DHT22;133;49.626;9.680;2023-04-06T15:15:43;16.20;38.80
298;DHT22;133;49.626;9.680;2023-04-06T15:18:09;16.40;39.10
298;DHT22;133;49.626;9.680;2023-04-06T15:20:35;16.40;39.90
298;DHT22;133;49.626;9.680;2023-04-06T15:23:02;16.20;38.60
298;DHT22;133;49.626;9.680;2023-04-06T15:25:29;16.10;38.80
298;DHT22;133;49.626;9.680;2023-04-06T15:27:55;16.10;38.50
298;DHT22;133;49.626;9.680;2023-04-06T15:30:20;16.00;38.90
298;DHT22;133;49.626;9.680;2023-04-06T15:32:58;15.70;39.60
298;DHT22;133;49.626;9.680;2023-04-06T15:35:26;15.80;39.80
298;DHT22;133;49.626;9.680;2023-04-06T15:37:54;15.70;39.40
298;DHT22;133;49.626;9.680;2023-04-06T15:40:20;15.60;39.60
298;DHT22;133;49.626;9.680;2023-04-06T15:42:45;15.60;39.80
298;DHT22;133;49.626;9.680;2023-04-06T15:45:11;15.50;39.50
298;DHT22;133;49.626;9.680;2023-04-06T15:47:42;15.70;40.10
298;DHT22;133;49.626;9.680;2023-04-06T15:50:08;15.70;40.50
298;DHT22;133;49.626;9.680;2023-04-06T15:52:34;15.50;41.20
298;DHT22;133;49.626;9.680;2023-04-06T15:55:02;15.40;40.70
298;DHT22;133;49.626;9.680;2023-04-06T15:57:28;15.40;40.80
298;DHT22;133;49.626;9.680;2023-04-06T15:59:54;15.40;39.90
298;DHT22;133;49.626;9.680;2023-04-06T16:02:21;15.50;39.70
298;DHT22;133;49.626;9.680;2023-04-06T16:04:56;15.50;39.50
298;DHT22;133;49.626;9.680;2023-04-06T16:07:22;15.30;39.90
298;DHT22;133;49.626;9.680;2023-04-06T16:09:51;15.20;39.40
298;DHT22;133;49.626;9.680;2023-04-06T16:12:17;15.10;40.30
298;DHT22;133;49.626;9.680;2023-04-06T16:14:43;15.00;41.00
298;DHT22;133;49.626;9.680;2023-04-06T16:17:09;14.70;40.80
298;DHT22;133;49.626;9.680;2023-04-06T16:19:35;14.70;40.80
298;DHT22;133;49.626;9.680;2023-04-06T16:22:00;14.60;41.00
298;DHT22;133;49.626;9.680;2023-04-06T16:24:26;14.60;40.90
298;DHT22;133;49.626;9.680;2023-04-06T16:26:52;14.50;40.40
298;DHT22;133;49.626;9.680;2023-04-06T16:29:18;14.50;40.90
298;DHT22;133;49.626;9.680;2023-04-06T16:31:44;14.70;41.00
298;DHT22;133;49.626;9.680;2023-04-06T16:34:12;14.80;41.10
298;DHT22;133;49.626;9.680;2023-04-06T16:36:38;14.70;40.10
298;DHT22;133;49.626;9.680;2023-04-06T16:39:06;14.80;40.50
298;DHT22;133;49.626;9.680;2023-04-06T16:41:32;14.70;41.20
298;DHT22;133;49.626;9.680;2023-04-06T16:43:58;14.70;40.40